Time;durP1;ratioP1;P1;durP2;ratioP2;P2;SDS_P1;SDS_P2;PMS_P1;PMS_P2;Temp;Humidity;BMP_temperature;BMP_pressure;BME280_temperature;BME280_humidity;BME280_pressure;Samples;Min_cycle;Max_cycle;Signal;HPM_P1;HPM_P2
2022/08/31 00:05:16;;;;;;;0.70;0.70;;;9.30;99.90;;;;;;5117133;28;20240;-67
2022/08/31 00:07:42;;;;;;;0.70;0.70;;;9.30;99.90;;;;;;5116531;28;20187;-67
2022/08/31 00:10:13;;;;;;;0.63;0.63;;;9.30;99.90;;;;;;5116689;28;20214;-67
2022/08/31 00:12:43;;;;;;;0.60;0.60;;;9.20;99.90;;;;;;5116621;28;20234;-67
2022/08/31 00:15:12;;;;;;;0.70;0.70;;;9.30;99.90;;;;;;5098143;28;20195;-67
2022/08/31 00:17:38;;;;;;;0.60;0.60;;;9.30;99.90;;;;;;5116381;28;20651;-67
2022/08/31 00:20:06;;;;;;;0.60;0.60;;;9.20;99.90;;;;;;5116004;28;20291;-67
2022/08/31 00:22:32;;;;;;;0.70;0.70;;;9.20;99.90;;;;;;5116350;28;20256;-67
2022/08/31 00:24:57;;;;;;;0.70;0.70;;;9.20;99.90;;;;;;5097915;28;20614;-67
2022/08/31 00:27:23;;;;;;;0.60;0.60;;;9.20;99.90;;;;;;5115834;28;20194;-67
2022/08/31 00:29:49;;;;;;;0.60;0.60;;;9.20;99.90;;;;;;5116019;28;20222;-67
2022/08/31 00:32:14;;;;;;;0.60;0.60;;;9.20;99.90;;;;;;5116490;28;20204;-67
2022/08/31 00:34:40;;;;;;;0.70;0.70;;;9.20;99.90;;;;;;5115498;28;20219;-67
2022/08/31 00:37:06;;;;;;;0.60;0.60;;;9.20;99.90;;;;;;5115245;28;20279;-67
2022/08/31 00:39:31;;;;;;;0.60;0.60;;;9.10;99.90;;;;;;5115842;28;20238;-66
2022/08/31 00:41:57;;;;;;;0.70;0.70;;;9.10;99.90;;;;;;5094244;28;20204;-67
2022/08/31 00:44:23;;;;;;;0.70;0.70;;;9.10;99.90;;;;;;5095560;28;20566;-67
2022/08/31 00:46:48;;;;;;;0.60;0.60;;;9.20;99.90;;;;;;5095561;28;20203;-67
2022/08/31 00:49:30;;;;;;;0.70;0.70;;;9.20;99.90;;;;;;5095572;28;20555;-67
2022/08/31 00:51:57;;;;;;;0.60;0.60;;;9.20;99.90;;;;;;5076860;28;20196;-67
2022/08/31 00:54:32;;;;;;;0.60;0.60;;;9.40;99.90;;;;;;5095138;28;20188;-67
2022/08/31 00:56:58;;;;;;;0.60;0.60;;;9.40;99.90;;;;;;5102928;28;20328;-67
2022/08/31 00:59:25;;;;;;;0.80;0.80;;;9.30;99.90;;;;;;5115110;28;20198;-67
2022/08/31 01:01:52;;;;;;;0.60;0.60;;;9.40;99.90;;;;;;5117353;28;20673;-70
2022/08/31 01:04:18;;;;;;;0.60;0.60;;;9.40;99.90;;;;;;5118644;28;20207;-71
2022/08/31 01:07:14;;;;;;;0.70;0.70;;;9.30;99.90;;;;;;5117276;28;20270;-70
2022/08/31 01:09:42;;;;;;;0.60;0.60;;;9.20;99.90;;;;;;5099258;28;20223;-71
2022/08/31 01:12:10;;;;;;;0.60;0.60;;;9.10;99.90;;;;;;5115134;28;20191;-71
2022/08/31 01:14:38;;;;;;;0.63;0.63;;;9.00;99.90;;;;;;5115446;28;20199;-74
2022/08/31 01:17:05;;;;;;;0.60;0.60;;;8.90;99.90;;;;;;5115107;28;20554;-73
2022/08/31 01:19:34;;;;;;;0.60;0.60;;;8.90;99.90;;;;;;5115024;28;20569;-71
2022/08/31 01:22:34;;;;;;;0.60;0.60;;;8.90;99.90;;;;;;5114946;28;20688;-71
2022/08/31 01:25:00;;;;;;;0.60;0.60;;;8.90;99.90;;;;;;5115605;28;20672;-71
2022/08/31 01:27:30;;;;;;;0.60;0.60;;;9.00;99.90;;;;;;5115529;28;20730;-71
2022/08/31 01:30:00;;;;;;;0.60;0.60;;;9.10;99.90;;;;;;5096432;28;20685;-71
2022/08/31 01:32:26;;;;;;;0.77;0.77;;;9.20;99.90;;;;;;5114562;28;20195;-73
2022/08/31 01:34:52;;;;;;;0.60;0.60;;;9.10;99.90;;;;;;5115144;28;20183;-72
2022/08/31 01:37:18;;;;;;;0.80;0.80;;;9.20;99.90;;;;;;5115039;28;20223;-71
2022/08/31 01:39:44;;;;;;;0.60;0.60;;;9.10;99.90;;;;;;5114864;28;20250;-71
2022/08/31 01:42:09;;;;;;;0.70;0.70;;;9.10;99.90;;;;;;5093040;28;20198;-71
2022/08/31 01:44:35;;;;;;;0.57;0.57;;;9.10;99.90;;;;;;5094212;28;20231;-71
2022/08/31 01:47:01;;;;;;;0.70;0.70;;;9.10;99.90;;;;;;5076284;28;20264;-71
2022/08/31 01:49:27;;;;;;;0.60;0.60;;;9.10;99.90;;;;;;5094097;28;20208;-71
2022/08/31 01:51:53;;;;;;;0.60;0.60;;;9.20;99.90;;;;;;5094354;28;20180;-72
2022/08/31 01:54:21;;;;;;;0.70;0.70;;;9.20;99.90;;;;;;5092844;28;20200;-71
2022/08/31 01:56:48;;;;;;;0.60;0.60;;;9.20;99.90;;;;;;5114750;28;20268;-71
2022/08/31 01:59:16;;;;;;;0.60;0.60;;;9.10;99.90;;;;;;5114574;28;20233;-71
2022/08/31 02:01:50;;;;;;;0.60;0.60;;;9.00;99.90;;;;;;5113111;28;20199;-71
2022/08/31 02:04:17;;;;;;;0.60;0.60;;;9.00;99.90;;;;;;5096216;28;20282;-71
2022/08/31 02:06:47;;;;;;;0.70;0.70;;;8.90;99.90;;;;;;5114414;28;20187;-71
2022/08/31 02:09:14;;;;;;;0.75;0.75;;;8.90;99.90;;;;;;5096352;28;20203;-71
2022/08/31 02:11:40;;;;;;;0.60;0.60;;;8.80;99.90;;;;;;5113762;28;20199;-71
2022/08/31 02:14:07;;;;;;;0.70;0.70;;;8.80;99.90;;;;;;5114391;28;20206;-71
2022/08/31 02:16:32;;;;;;;0.60;0.60;;;8.80;99.90;;;;;;5113421;28;20666;-71
2022/08/31 02:18:58;;;;;;;0.65;0.65;;;8.70;99.90;;;;;;5114305;28;20219;-71
2022/08/31 02:21:24;;;;;;;0.60;0.60;;;8.70;99.90;;;;;;5113898;28;20628;-71
2022/08/31 02:23:50;;;;;;;0.70;0.70;;;8.70;99.90;;;;;;5114169;28;20195;-72
2022/08/31 02:26:16;;;;;;;0.60;0.60;;;8.70;99.90;;;;;;5114139;28;20199;-70
2022/08/31 02:28:42;;;;;;;0.60;0.60;;;8.60;99.90;;;;;;5113865;28;20665;-71
2022/08/31 02:31:08;;;;;;;0.60;0.60;;;8.60;99.90;;;;;;5114028;28;20190;-71
2022/08/31 02:33:33;;;;;;;0.60;0.60;;;8.60;99.90;;;;;;5113829;28;20317;-70
2022/08/31 02:35:59;;;;;;;0.60;0.60;;;8.60;99.90;;;;;;5114015;28;20187;-71
2022/08/31 02:38:26;;;;;;;0.70;0.70;;;8.60;99.90;;;;;;5095297;28;20343;-71
2022/08/31 02:40:52;;;;;;;0.70;0.70;;;8.60;99.90;;;;;;5113962;28;20192;-68
2022/08/31 02:43:18;;;;;;;0.70;0.70;;;8.60;99.90;;;;;;5096166;28;20527;-69
2022/08/31 02:45:44;;;;;;;0.60;0.60;;;8.60;99.90;;;;;;5093479;28;20189;-71
2022/08/31 02:48:10;;;;;;;0.60;0.60;;;8.70;99.90;;;;;;5093500;28;20194;-72
2022/08/31 02:50:42;;;;;;;0.60;0.60;;;8.60;99.90;;;;;;5110425;28;20550;-69
2022/08/31 02:53:09;;;;;;;0.50;0.50;;;8.60;99.90;;;;;;5113739;28;20206;-72
2022/08/31 02:55:35;;;;;;;0.55;0.55;;;8.60;99.90;;;;;;5095460;28;20391;-69
2022/08/31 02:58:01;;;;;;;0.60;0.60;;;8.60;99.90;;;;;;5113223;28;20190;-71
2022/08/31 03:00:27;;;;;;;0.70;0.70;;;8.70;99.90;;;;;;5114277;28;20286;-72
2022/08/31 03:02:53;;;;;;;0.60;0.60;;;8.70;99.90;;;;;;5116148;27;20686;-69
2022/08/31 03:05:20;;;;;;;0.60;0.60;;;8.70;99.90;;;;;;5138442;27;20244;-69
2022/08/31 03:07:48;;;;;;;0.60;0.60;;;8.60;99.90;;;;;;5135289;27;20186;-71
2022/08/31 03:10:15;;;;;;;0.60;0.60;;;8.60;99.90;;;;;;5099576;28;20230;-71
2022/08/31 03:12:41;;;;;;;0.60;0.60;;;8.60;99.90;;;;;;5117700;28;20278;-72
2022/08/31 03:15:08;;;;;;;0.60;0.60;;;8.50;99.90;;;;;;5117744;28;20187;-72
2022/08/31 03:17:34;;;;;;;0.70;0.70;;;8.50;99.90;;;;;;5117617;28;20183;-71
2022/08/31 03:20:01;;;;;;;0.60;0.60;;;8.50;99.90;;;;;;5117665;28;20202;-71
2022/08/31 03:22:28;;;;;;;0.60;0.60;;;8.40;99.90;;;;;;5117341;28;20188;-71
2022/08/31 03:24:54;;;;;;;0.60;0.60;;;8.30;99.90;;;;;;5117572;28;20192;-71
2022/08/31 03:27:20;;;;;;;0.63;0.63;;;8.30;99.90;;;;;;5117339;28;20199;-71
2022/08/31 03:29:45;;;;;;;0.60;0.60;;;8.30;99.90;;;;;;5117349;28;20211;-71
2022/08/31 03:32:12;;;;;;;0.60;0.60;;;8.30;99.90;;;;;;5117389;28;20180;-70
2022/08/31 03:34:38;;;;;;;0.60;0.60;;;8.20;99.90;;;;;;5117112;28;20192;-70
2022/08/31 03:37:04;;;;;;;0.60;0.60;;;8.20;99.90;;;;;;5117057;28;20183;-71
2022/08/31 03:39:30;;;;;;;0.60;0.60;;;8.20;99.90;;;;;;5116612;28;20227;-70
2022/08/31 03:41:56;;;;;;;0.60;0.60;;;8.20;99.90;;;;;;5111110;28;20726;-71
2022/08/31 03:44:22;;;;;;;0.70;0.70;;;8.20;99.90;;;;;;5096483;28;20670;-70
2022/08/31 03:46:49;;;;;;;0.70;0.70;;;8.20;99.90;;;;;;5113527;28;20199;-71
2022/08/31 03:49:17;;;;;;;0.70;0.70;;;8.20;99.90;;;;;;5116997;28;20226;-71
2022/08/31 03:51:44;;;;;;;0.70;0.70;;;8.20;99.90;;;;;;5117139;28;20191;-70
2022/08/31 03:54:10;;;;;;;0.60;0.60;;;8.20;99.90;;;;;;5098658;28;20188;-70
2022/08/31 03:56:39;;;;;;;0.68;0.68;;;8.10;99.90;;;;;;5116840;28;20278;-71
2022/08/31 03:59:06;;;;;;;0.65;0.65;;;8.10;99.90;;;;;;5116961;28;20195;-71
2022/08/31 04:01:34;;;;;;;0.80;0.80;;;7.90;99.90;;;;;;5116909;28;20191;-71
2022/08/31 04:04:00;;;;;;;0.60;0.60;;;7.90;99.90;;;;;;5116348;28;20223;-70
2022/08/31 04:06:28;;;;;;;0.70;0.70;;;7.80;99.90;;;;;;5098275;28;20300;-70
2022/08/31 04:08:54;;;;;;;0.60;0.60;;;7.70;99.90;;;;;;5116674;28;20218;-70
2022/08/31 04:11:20;;;;;;;0.60;0.60;;;7.60;99.90;;;;;;5115054;28;20187;-70
2022/08/31 04:13:46;;;;;;;0.73;0.73;;;7.60;99.90;;;;;;5116570;28;20187;-71
2022/08/31 04:16:16;;;;;;;0.60;0.60;;;7.50;99.90;;;;;;5116689;28;20188;-71
2022/08/31 04:18:44;;;;;;;0.60;0.60;;;7.50;99.90;;;;;;5116485;28;20616;-71
2022/08/31 04:21:12;;;;;;;0.70;0.70;;;7.50;99.90;;;;;;5115751;28;20207;-70
2022/08/31 04:23:39;;;;;;;0.70;0.70;;;7.40;99.90;;;;;;5115570;28;20207;-70
2022/08/31 04:26:07;;;;;;;0.70;0.70;;;7.50;99.90;;;;;;5098139;28;20200;-71
2022/08/31 04:28:33;;;;;;;0.70;0.70;;;7.40;99.90;;;;;;5097547;28;20223;-71
2022/08/31 04:31:07;;;;;;;0.73;0.73;;;7.50;99.90;;;;;;5116289;28;20628;-71
2022/08/31 04:33:36;;;;;;;0.70;0.70;;;7.40;99.90;;;;;;5097607;28;20220;-71
2022/08/31 04:36:22;;;;;;;0.68;0.68;;;7.40;99.90;;;;;;5116301;28;20187;-70
2022/08/31 04:38:50;;;;;;;0.60;0.60;;;7.40;99.90;;;;;;5094067;28;20239;-71
2022/08/31 04:41:18;;;;;;;0.60;0.60;;;7.40;99.90;;;;;;5112801;28;20226;-71
2022/08/31 04:43:48;;;;;;;0.70;0.70;;;7.40;99.90;;;;;;5108746;28;20198;-70
2022/08/31 04:46:15;;;;;;;0.70;0.70;;;7.40;99.90;;;;;;5116067;27;20195;-71
2022/08/31 04:48:40;;;;;;;0.80;0.80;;;7.40;99.90;;;;;;5115637;28;20707;-71
2022/08/31 04:51:15;;;;;;;0.80;0.80;;;7.30;99.90;;;;;;5115897;28;20194;-69
2022/08/31 04:53:42;;;;;;;0.60;0.60;;;7.30;99.90;;;;;;5115610;28;20183;-71
2022/08/31 04:56:15;;;;;;;0.70;0.70;;;7.20;99.90;;;;;;5115745;28;20552;-71
2022/08/31 04:58:52;;;;;;;0.60;0.60;;;7.20;99.90;;;;;;5115522;28;20215;-71
2022/08/31 05:01:21;;;;;;;0.63;0.63;;;7.20;99.90;;;;;;5104619;28;20211;-70
2022/08/31 05:03:52;;;;;;;0.70;0.70;;;7.20;99.90;;;;;;5095087;28;20197;-69
2022/08/31 05:06:20;;;;;;;0.80;0.80;;;7.20;99.90;;;;;;5093882;28;20204;-69
2022/08/31 05:08:47;;;;;;;0.70;0.70;;;7.20;99.90;;;;;;5093648;28;20215;-69
2022/08/31 05:11:17;;;;;;;0.70;0.70;;;7.20;99.90;;;;;;5095078;28;20188;-69
2022/08/31 05:13:43;;;;;;;0.70;0.70;;;7.20;99.90;;;;;;5095313;28;20615;-69
2022/08/31 05:16:10;;;;;;;0.82;0.82;;;7.30;99.90;;;;;;5095056;28;20271;-69
2022/08/31 05:18:38;;;;;;;0.70;0.70;;;7.40;99.90;;;;;;5094854;28;20269;-70
2022/08/31 05:21:09;;;;;;;0.70;0.70;;;7.50;99.90;;;;;;5112245;28;20662;-70
2022/08/31 05:23:34;;;;;;;0.70;0.70;;;7.70;99.90;;;;;;5115328;28;20547;-69
2022/08/31 05:26:00;;;;;;;0.60;0.60;;;7.90;99.90;;;;;;5114481;28;20266;-69
2022/08/31 05:29:02;;;;;;;0.63;0.63;;;8.00;99.90;;;;;;5115023;28;20265;-71
2022/08/31 05:31:28;;;;;;;0.60;0.60;;;8.30;99.90;;;;;;5117406;28;20661;-69
2022/08/31 05:33:55;;;;;;;0.60;0.60;;;8.50;99.90;;;;;;5113916;28;20662;-69
2022/08/31 05:36:21;;;;;;;0.60;0.60;;;8.70;99.90;;;;;;5112847;28;20198;-70
2022/08/31 05:38:46;;;;;;;0.63;0.63;;;8.90;99.90;;;;;;5113229;28;20235;-70
2022/08/31 05:41:12;;;;;;;0.70;0.70;;;9.20;99.90;;;;;;5113533;28;20199;-70
2022/08/31 05:43:39;;;;;;;0.63;0.63;;;9.40;99.90;;;;;;5094396;28;20204;-70
2022/08/31 05:46:06;;;;;;;0.60;0.60;;;9.60;99.90;;;;;;5094421;28;20727;-70
2022/08/31 05:48:35;;;;;;;0.60;0.60;;;9.70;99.90;;;;;;5094128;28;20192;-70
2022/08/31 05:51:05;;;;;;;0.70;0.70;;;9.90;99.90;;;;;;5093159;28;20666;-70
2022/08/31 05:53:32;;;;;;;0.60;0.60;;;10.10;99.90;;;;;;5092818;28;20196;-70
2022/08/31 05:56:00;;;;;;;0.60;0.60;;;10.30;99.90;;;;;;5100766;28;20198;-69
2022/08/31 05:58:27;;;;;;;0.60;0.60;;;10.50;99.90;;;;;;5113385;28;20607;-70
2022/08/31 06:00:52;;;;;;;0.60;0.60;;;10.70;99.90;;;;;;5114378;28;20280;-70
2022/08/31 06:03:18;;;;;;;0.60;0.60;;;10.80;99.90;;;;;;5114279;28;20331;-70
2022/08/31 06:05:44;;;;;;;0.50;0.50;;;10.90;99.90;;;;;;5114390;28;20203;-70
2022/08/31 06:08:10;;;;;;;0.50;0.50;;;11.10;99.90;;;;;;5114268;28;20550;-70
2022/08/31 06:10:36;;;;;;;0.60;0.60;;;11.20;99.90;;;;;;5114068;28;20677;-70
2022/08/31 06:13:04;;;;;;;0.60;0.60;;;11.40;99.90;;;;;;5114316;28;20286;-70
2022/08/31 06:15:29;;;;;;;0.60;0.60;;;11.50;99.90;;;;;;5114079;28;20282;-69
2022/08/31 06:17:56;;;;;;;0.50;0.50;;;11.60;99.90;;;;;;5113684;28;20261;-71
2022/08/31 06:20:24;;;;;;;0.60;0.60;;;11.70;99.90;;;;;;5114181;28;20237;-70
2022/08/31 06:22:50;;;;;;;0.50;0.50;;;11.70;99.90;;;;;;5113987;28;20244;-70
2022/08/31 06:25:18;;;;;;;0.50;0.50;;;11.50;99.90;;;;;;5114096;28;20191;-70
2022/08/31 06:27:47;;;;;;;0.50;0.50;;;11.40;99.90;;;;;;5114107;28;20219;-70
2022/08/31 06:30:17;;;;;;;0.60;0.60;;;11.30;99.90;;;;;;5113811;28;20207;-71
2022/08/31 06:32:46;;;;;;;0.60;0.60;;;11.40;99.90;;;;;;5113652;28;20197;-70
2022/08/31 06:35:13;;;;;;;4.35;1.15;;;11.60;99.90;;;;;;5113277;28;20274;-70
2022/08/31 06:37:39;;;;;;;0.57;0.57;;;11.80;99.90;;;;;;5114082;28;20200;-70
2022/08/31 06:40:08;;;;;;;0.50;0.50;;;11.90;99.90;;;;;;5112409;28;20246;-70
2022/08/31 06:42:34;;;;;;;1.00;0.73;;;11.90;99.90;;;;;;5102317;28;20211;-70
2022/08/31 06:45:00;;;;;;;0.60;0.60;;;11.90;99.90;;;;;;5093540;28;20663;-70
2022/08/31 06:47:26;;;;;;;0.60;0.60;;;11.90;99.90;;;;;;5091976;28;20196;-71
2022/08/31 06:49:52;;;;;;;0.50;0.50;;;11.90;99.90;;;;;;5093409;28;20207;-70
2022/08/31 06:52:19;;;;;;;0.60;0.60;;;11.90;99.90;;;;;;5093437;28;20188;-70
2022/08/31 06:54:44;;;;;;;0.55;0.55;;;11.90;99.90;;;;;;5112565;28;20202;-70
2022/08/31 06:57:10;;;;;;;0.50;0.50;;;11.90;99.90;;;;;;5113533;28;20266;-70
2022/08/31 06:59:36;;;;;;;0.57;0.57;;;11.90;99.90;;;;;;5113370;28;20249;-70
2022/08/31 07:02:04;;;;;;;0.60;0.60;;;12.00;99.90;;;;;;5113045;28;20248;-70
2022/08/31 07:04:33;;;;;;;0.70;0.70;;;12.00;99.90;;;;;;5112214;28;20677;-71
2022/08/31 07:06:59;;;;;;;0.60;0.60;;;12.20;99.90;;;;;;5113698;28;20202;-71
2022/08/31 07:09:25;;;;;;;0.50;0.50;;;12.30;99.90;;;;;;5112389;28;20543;-70
2022/08/31 07:11:52;;;;;;;0.50;0.50;;;12.60;99.90;;;;;;5112352;28;20195;-71
2022/08/31 07:14:21;;;;;;;0.50;0.50;;;12.90;99.90;;;;;;5113694;28;20654;-71
2022/08/31 07:16:47;;;;;;;0.60;0.60;;;13.00;99.90;;;;;;5112371;28;20298;-70
2022/08/31 07:19:14;;;;;;;0.50;0.50;;;13.10;99.90;;;;;;5112403;28;20221;-71
2022/08/31 07:21:44;;;;;;;0.60;0.60;;;13.20;99.90;;;;;;5111896;28;20278;-71
2022/08/31 07:24:12;;;;;;;0.50;0.50;;;13.30;99.90;;;;;;5113478;28;20191;-71
2022/08/31 07:26:46;;;;;;;0.50;0.50;;;13.40;99.90;;;;;;5113481;28;20654;-71
2022/08/31 07:29:14;;;;;;;0.50;0.50;;;13.40;99.90;;;;;;5113412;28;20198;-71
2022/08/31 07:31:47;;;;;;;0.50;0.50;;;13.60;99.90;;;;;;5113185;28;20692;-71
2022/08/31 07:34:24;;;;;;;0.50;0.50;;;13.90;99.90;;;;;;5113360;28;20553;-71
2022/08/31 07:42:28;;;;;;;0.57;0.57;;;14.80;99.90;;;;;;5124490;28;20206;-71
2022/08/31 07:44:57;;;;;;;0.50;0.50;;;15.00;99.90;;;;;;5114625;28;20194;-72
2022/08/31 07:47:24;;;;;;;0.40;0.40;;;15.10;99.90;;;;;;5116963;28;20191;-71
2022/08/31 07:49:53;;;;;;;3.95;1.95;;;15.20;99.90;;;;;;5099685;28;20215;-71
2022/08/31 07:52:28;;;;;;;0.40;0.40;;;15.20;99.90;;;;;;5117045;28;20259;-71
2022/08/31 07:55:08;;;;;;;0.40;0.40;;;15.20;99.90;;;;;;5116922;28;20582;-71
2022/08/31 07:57:43;;;;;;;0.40;0.40;;;15.20;99.90;;;;;;5116919;28;20210;-71
2022/08/31 08:00:19;;;;;;;0.43;0.43;;;15.30;99.90;;;;;;5117152;28;20270;-71
2022/08/31 08:02:45;;;;;;;0.40;0.40;;;15.40;99.90;;;;;;5098252;28;20676;-71
2022/08/31 08:05:20;;;;;;;0.45;0.45;;;15.50;99.90;;;;;;5116868;28;20202;-71
2022/08/31 08:07:51;;;;;;;0.43;0.43;;;15.70;99.90;;;;;;5100143;27;20199;-71
2022/08/31 08:10:20;;;;;;;0.47;0.47;;;16.00;99.90;;;;;;5137527;27;20206;-71
2022/08/31 08:12:55;;;;;;;0.40;0.40;;;16.10;99.90;;;;;;5136894;27;20187;-71
2022/08/31 08:15:23;;;;;;;0.32;0.32;;;16.30;99.90;;;;;;5136696;27;20270;-71
2022/08/31 08:17:48;;;;;;;0.30;0.30;;;16.40;99.90;;;;;;5136862;27;20633;-71
2022/08/31 08:20:14;;;;;;;0.30;0.30;;;16.60;99.90;;;;;;5136786;27;20191;-72
2022/08/31 08:22:42;;;;;;;0.38;0.38;;;16.90;99.90;;;;;;5136653;27;20206;-71
2022/08/31 08:25:08;;;;;;;0.38;0.38;;;17.10;99.90;;;;;;5136331;27;20191;-72
2022/08/31 08:27:34;;;;;;;0.30;0.30;;;17.10;99.90;;;;;;5136586;27;20202;-71
2022/08/31 08:30:00;;;;;;;2.95;0.70;;;17.30;99.90;;;;;;5136733;27;20202;-71
2022/08/31 08:32:26;;;;;;;0.50;0.50;;;17.50;99.90;;;;;;5136597;27;20190;-71
2022/08/31 08:34:52;;;;;;;0.30;0.30;;;17.50;99.90;;;;;;5136765;27;20649;-71
2022/08/31 08:37:20;;;;;;;0.30;0.30;;;17.40;99.90;;;;;;5137074;27;20251;-71
2022/08/31 08:39:46;;;;;;;0.30;0.30;;;17.50;99.90;;;;;;5136651;27;20335;-71
2022/08/31 08:42:14;;;;;;;0.47;0.40;;;17.60;99.90;;;;;;5128373;27;20196;-71
2022/08/31 08:44:41;;;;;;;0.50;0.50;;;17.80;99.90;;;;;;5115827;28;20196;-71
2022/08/31 08:47:14;;;;;;;0.30;0.30;;;18.20;99.90;;;;;;5134185;27;20202;-71
2022/08/31 08:49:49;;;;;;;0.30;0.30;;;18.20;99.90;;;;;;5136308;27;20233;-72
2022/08/31 08:52:39;;;;;;;0.30;0.30;;;18.40;99.90;;;;;;5136650;27;20667;-72
2022/08/31 08:55:09;;;;;;;0.20;0.20;;;18.50;99.90;;;;;;5118115;27;20285;-72
2022/08/31 08:57:42;;;;;;;0.30;0.30;;;18.60;99.90;;;;;;5135607;27;20187;-72
2022/08/31 09:00:32;;;;;;;0.40;0.40;;;18.90;99.90;;;;;;5136379;27;20225;-72
2022/08/31 09:03:43;;;;;;;0.30;0.30;;;18.90;99.90;;;;;;5136224;27;20194;-72
2022/08/31 09:06:57;;;;;;;0.65;0.57;;;19.10;99.90;;;;;;5092530;27;20753;-73
2022/08/31 09:09:44;;;;;;;0.40;0.40;;;18.90;99.90;;;;;;5081143;27;20259;-73
2022/08/31 09:12:25;;;;;;;0.40;0.40;;;18.60;99.90;;;;;;5136097;27;20281;-72
2022/08/31 09:15:15;;;;;;;0.40;0.40;;;18.30;99.90;;;;;;5136165;27;20214;-72
2022/08/31 09:17:54;;;;;;;0.30;0.30;;;18.10;99.90;;;;;;5117509;27;20277;-72
2022/08/31 09:20:20;;;;;;;0.20;0.20;;;18.00;99.90;;;;;;5135807;27;20193;-72
2022/08/31 09:22:49;;;;;;;0.80;0.40;;;18.20;99.90;;;;;;5135633;27;20187;-72
2022/08/31 09:25:27;;;;;;;0.30;0.30;;;18.40;99.90;;;;;;5135807;27;20187;-72
2022/08/31 09:27:56;;;;;;;0.30;0.30;;;18.60;99.90;;;;;;5117408;27;20198;-72
2022/08/31 09:30:51;;;;;;;0.80;0.40;;;18.50;99.90;;;;;;5135431;27;20214;-72
2022/08/31 09:33:29;;;;;;;0.38;0.38;;;18.30;99.90;;;;;;5135646;27;20673;-71
2022/08/31 09:36:26;;;;;;;0.30;0.30;;;18.40;99.90;;;;;;5135638;27;20186;-72
2022/08/31 09:38:52;;;;;;;0.40;0.40;;;18.60;99.90;;;;;;5116930;27;20688;-72
2022/08/31 09:41:30;;;;;;;0.30;0.30;;;18.70;99.90;;;;;;5135177;27;20201;-71
2022/08/31 09:44:16;;;;;;;0.30;0.30;;;19.00;99.90;;;;;;5115290;28;20191;-72
2022/08/31 09:46:50;;;;;;;0.80;0.57;;;19.00;99.90;;;;;;5114662;28;20187;-71
2022/08/31 09:49:37;;;;;;;0.28;0.28;;;19.20;99.90;;;;;;5114492;28;20681;-71
2022/08/31 09:55:12;;;;;;;0.30;0.30;;;19.00;99.90;;;;;;5096445;28;20187;-72
2022/08/31 09:55:13;;;;;;;0.30;0.30;;;18.90;99.90;;;;;;5114493;28;20199;-71
2022/08/31 09:57:51;;;;;;;0.30;0.30;;;18.80;99.90;;;;;;5114397;28;20215;-71
2022/08/31 10:00:31;;;;;;;0.50;0.50;;;18.70;99.90;;;;;;5096280;28;20654;-71
2022/08/31 10:03:08;;;;;;;0.20;0.20;;;18.90;99.90;;;;;;5114489;28;20187;-71
2022/08/31 10:05:39;;;;;;;0.20;0.20;;;19.00;99.90;;;;;;5114330;28;20236;-72
2022/08/31 10:08:33;;;;;;;0.25;0.25;;;19.40;99.90;;;;;;5114240;28;20198;-71
2022/08/31 10:11:05;;;;;;;1.10;0.40;;;19.80;99.90;;;;;;5114359;28;20270;-71
2022/08/31 10:13:48;;;;;;;0.20;0.20;;;20.00;99.90;;;;;;5114102;28;20707;-72
2022/08/31 10:16:34;;;;;;;10.32;0.77;;;20.30;99.90;;;;;;5095783;28;20248;-72
2022/08/31 10:18:59;;;;;;;0.20;0.20;;;19.60;99.90;;;;;;5117679;27;20723;-71
2022/08/31 10:21:50;;;;;;;0.30;0.30;;;19.50;99.90;;;;;;5115851;27;20202;-71
2022/08/31 10:24:42;;;;;;;0.20;0.20;;;19.70;99.90;;;;;;5134687;27;20600;-71
2022/08/31 10:27:18;;;;;;;0.30;0.30;;;20.10;99.90;;;;;;5134064;27;20202;-71
2022/08/31 10:30:06;;;;;;;0.30;0.30;;;20.70;99.90;;;;;;5134088;27;20298;-71
2022/08/31 10:32:38;;;;;;;0.20;0.20;;;21.10;99.90;;;;;;5134214;27;20194;-71
2022/08/31 10:35:18;;;;;;;0.20;0.20;;;21.30;99.90;;;;;;5134460;27;20215;-71
2022/08/31 10:38:38;;;;;;;0.20;0.20;;;21.60;99.90;;;;;;5134549;27;20264;-71
2022/08/31 10:41:12;;;;;;;0.30;0.30;;;21.80;99.90;;;;;;5093539;28;20265;-72
2022/08/31 10:43:47;;;;;;;0.20;0.20;;;21.60;99.90;;;;;;5073120;28;20192;-71
2022/08/31 10:46:15;;;;;;;0.30;0.30;;;22.00;99.90;;;;;;5073282;28;20196;-71
2022/08/31 10:48:45;;;;;;;0.20;0.20;;;22.20;99.90;;;;;;5072966;28;20196;-71
2022/08/31 10:51:41;;;;;;;0.20;0.20;;;22.10;99.90;;;;;;5072772;28;20192;-71
2022/08/31 10:54:17;;;;;;;0.20;0.20;;;21.80;99.90;;;;;;5073040;28;20211;-72
2022/08/31 10:57:18;;;;;;;0.20;0.20;;;21.40;99.90;;;;;;5068065;28;20678;-72
2022/08/31 11:00:40;;;;;;;0.20;0.20;;;20.60;99.90;;;;;;5093084;28;20196;-72
2022/08/31 11:03:36;;;;;;;0.32;0.32;;;19.60;99.90;;;;;;5093441;28;20250;-73
2022/08/31 11:06:37;;;;;;;0.30;0.30;;;18.70;99.90;;;;;;5093579;28;20192;-73
2022/08/31 11:09:25;;;;;;;0.30;0.30;;;18.30;99.90;;;;;;5091685;28;20298;-72
2022/08/31 11:12:40;;;;;;;0.50;0.43;;;18.10;99.90;;;;;;5091949;28;20199;-71
2022/08/31 11:15:34;;;;;;;0.30;0.30;;;17.80;99.90;;;;;;5011213;28;20222;-71
2022/08/31 11:18:34;;;;;;;0.30;0.30;;;17.80;99.90;;;;;;5011212;28;20222;-71
2022/08/31 11:21:35;;;;;;;0.30;0.30;;;17.60;99.90;;;;;;5014352;28;20566;-71
2022/08/31 11:24:27;;;;;;;0.30;0.30;;;17.60;99.90;;;;;;5015144;28;20241;-71
2022/08/31 11:27:10;;;;;;;0.30;0.30;;;17.60;99.90;;;;;;5015062;28;20610;-71
2022/08/31 11:29:55;;;;;;;0.30;0.30;;;17.80;99.90;;;;;;5014819;28;20802;-71
2022/08/31 11:32:28;;;;;;;0.43;0.43;;;18.30;99.90;;;;;;5014492;28;20659;-71
2022/08/31 11:34:57;;;;;;;0.30;0.30;;;19.50;99.90;;;;;;5014410;28;20562;-71
2022/08/31 11:37:57;;;;;;;0.30;0.30;;;20.70;99.90;;;;;;4998062;28;20702;-71
2022/08/31 11:40:42;;;;;;;0.20;0.20;;;21.50;99.90;;;;;;5014675;28;20203;-71
2022/08/31 11:43:26;;;;;;;0.30;0.30;;;21.00;99.90;;;;;;5014486;28;20222;-71
2022/08/31 11:45:54;;;;;;;0.30;0.30;;;20.30;99.90;;;;;;5014879;28;20645;-72
2022/08/31 11:48:53;;;;;;;0.30;0.30;;;19.60;99.90;;;;;;5014658;28;20204;-72
2022/08/31 11:51:39;;;;;;;0.20;0.20;;;18.90;99.90;;;;;;5076157;28;20196;-71
2022/08/31 11:54:23;;;;;;;0.30;0.30;;;18.70;99.90;;;;;;5075339;28;20606;-71
2022/08/31 11:56:49;;;;;;;0.30;0.30;;;18.60;99.90;;;;;;5076412;28;20211;-71
2022/08/31 11:59:34;;;;;;;0.22;0.22;;;18.60;99.90;;;;;;5075765;28;20192;-70
2022/08/31 12:02:25;;;;;;;0.30;0.30;;;18.50;99.90;;;;;;5074878;28;20200;-72
2022/08/31 12:05:02;;;;;;;0.30;0.30;;;18.70;99.90;;;;;;5076269;28;20272;-72
2022/08/31 12:07:34;;;;;;;0.30;0.30;;;19.40;99.90;;;;;;5076005;28;20254;-72
2022/08/31 12:10:06;;;;;;;0.30;0.30;;;19.80;99.90;;;;;;5075898;28;20291;-72
2022/08/31 12:12:54;;;;;;;0.22;0.20;;;20.70;99.90;;;;;;5088075;28;20583;-72
2022/08/31 12:15:38;;;;;;;0.20;0.20;;;20.30;99.90;;;;;;5095830;28;20191;-73
2022/08/31 12:18:29;;;;;;;0.25;0.25;;;20.00;99.90;;;;;;5095884;28;20191;-73
2022/08/31 12:24:13;;;;;;;0.30;0.30;;;19.70;99.90;;;;;;5095701;28;20203;-72
2022/08/31 12:27:08;;;;;;;0.20;0.20;;;20.00;99.90;;;;;;5095542;28;20599;-72
2022/08/31 12:29:39;;;;;;;0.17;0.17;;;20.20;99.90;;;;;;5094815;28;20204;-73
2022/08/31 12:32:17;;;;;;;0.25;0.25;;;20.20;99.90;;;;;;5077324;28;20205;-72
2022/08/31 12:35:13;;;;;;;0.20;0.20;;;19.90;99.90;;;;;;5075899;28;20192;-72
2022/08/31 12:37:39;;;;;;;0.20;0.20;;;19.70;99.90;;;;;;5067329;28;20211;-72
2022/08/31 12:40:20;;;;;;;0.20;0.20;;;19.90;99.90;;;;;;5110967;28;20373;-72
2022/08/31 12:43:00;;;;;;;0.20;0.20;;;20.00;99.90;;;;;;5115751;28;20681;-72
2022/08/31 12:46:04;;;;;;;0.20;0.20;;;20.30;99.90;;;;;;5097553;28;20207;-72
2022/08/31 12:48:48;;;;;;;0.20;0.20;;;20.40;99.90;;;;;;5096370;28;20578;-73
2022/08/31 12:51:32;;;;;;;0.20;0.20;;;20.40;99.90;;;;;;5097710;28;20242;-73
2022/08/31 12:54:35;;;;;;;3.10;0.93;;;20.40;99.90;;;;;;5115816;28;20595;-73
2022/08/31 12:57:19;;;;;;;0.20;0.20;;;20.40;99.90;;;;;;5097650;28;20187;-72
2022/08/31 13:00:00;;;;;;;0.20;0.20;;;20.20;99.90;;;;;;5115842;28;20223;-73
2022/08/31 13:02:28;;;;;;;0.20;0.20;;;20.00;99.90;;;;;;5115495;28;20191;-72
2022/08/31 13:04:53;;;;;;;0.20;0.20;;;19.80;99.90;;;;;;5097369;28;20195;-71
2022/08/31 13:07:20;;;;;;;0.32;0.32;;;19.60;99.90;;;;;;5115319;27;20198;-71
2022/08/31 13:09:59;;;;;;;0.20;0.20;;;19.60;99.90;;;;;;5136161;27;20207;-72
2022/08/31 13:12:25;;;;;;;0.30;0.30;;;19.40;99.90;;;;;;5135875;27;20198;-72
2022/08/31 13:14:51;;;;;;;0.20;0.20;;;19.40;99.90;;;;;;5136097;27;20195;-72
2022/08/31 13:17:20;;;;;;;0.30;0.30;;;19.20;99.90;;;;;;5136285;27;20191;-72
2022/08/31 13:19:57;;;;;;;0.25;0.25;;;18.90;99.90;;;;;;5136074;27;20278;-72
2022/08/31 13:22:32;;;;;;;0.20;0.20;;;19.00;99.90;;;;;;5135538;27;20277;-72
2022/08/31 13:25:24;;;;;;;0.20;0.20;;;19.10;99.90;;;;;;5117254;27;20582;-72
2022/08/31 13:27:51;;;;;;;0.20;0.20;;;19.10;99.90;;;;;;5135396;27;20199;-72
2022/08/31 13:30:20;;;;;;;0.20;0.20;;;19.20;99.90;;;;;;5135499;27;20215;-72
2022/08/31 13:32:51;;;;;;;0.20;0.20;;;19.10;99.90;;;;;;5135785;27;20722;-72